sensor_id;sensor_type;location;lat;lon;timestamp;P1;durP1;ratioP1;P2;durP2;ratioP2
51438;SDS011;38816;51.142;-0.974;2023-06-19T00:02:03;372.42;;;346.52;;
51438;SDS011;38816;51.142;-0.974;2023-06-19T00:04:29;380.52;;;353.52;;
51438;SDS011;38816;51.142;-0.974;2023-06-19T00:06:54;373.67;;;347.65;;
51438;SDS011;38816;51.142;-0.974;2023-06-19T00:09:20;375.98;;;349.52;;
51438;SDS011;38816;51.142;-0.974;2023-06-19T00:11:45;354.15;;;329.27;;
51438;SDS011;38816;51.142;-0.974;2023-06-19T00:14:11;367.83;;;341.98;;
51438;SDS011;38816;51.142;-0.974;2023-06-19T00:16:36;373.38;;;347.08;;
51438;SDS011;38816;51.142;-0.974;2023-06-19T00:19:01;375.95;;;349.98;;
51438;SDS011;38816;51.142;-0.974;2023-06-19T00:21:28;375.00;;;348.60;;
51438;SDS011;38816;51.142;-0.974;2023-06-19T00:23:54;363.05;;;338.02;;
51438;SDS011;38816;51.142;-0.974;2023-06-19T00:26:20;375.58;;;349.33;;
51438;SDS011;38816;51.142;-0.974;2023-06-19T00:28:50;369.35;;;343.63;;
51438;SDS011;38816;51.142;-0.974;2023-06-19T00:31:16;373.67;;;347.67;;
51438;SDS011;38816;51.142;-0.974;2023-06-19T00:33:42;371.45;;;345.63;;
51438;SDS011;38816;51.142;-0.974;2023-06-19T00:36:12;371.40;;;345.52;;
51438;SDS011;38816;51.142;-0.974;2023-06-19T00:38:40;372.35;;;346.60;;
51438;SDS011;38816;51.142;-0.974;2023-06-19T00:41:06;365.02;;;339.55;;
51438;SDS011;38816;51.142;-0.974;2023-06-19T00:43:32;373.63;;;347.35;;
51438;SDS011;38816;51.142;-0.974;2023-06-19T00:45:58;359.98;;;334.63;;
51438;SDS011;38816;51.142;-0.974;2023-06-19T00:48:24;362.80;;;337.38;;
51438;SDS011;38816;51.142;-0.974;2023-06-19T00:50:52;356.77;;;331.85;;
51438;SDS011;38816;51.142;-0.974;2023-06-19T00:53:17;368.17;;;342.33;;
51438;SDS011;38816;51.142;-0.974;2023-06-19T00:55:44;353.77;;;328.85;;
51438;SDS011;38816;51.142;-0.974;2023-06-19T00:58:11;362.52;;;337.15;;
51438;SDS011;38816;51.142;-0.974;2023-06-19T01:00:37;362.00;;;336.38;;
51438;SDS011;38816;51.142;-0.974;2023-06-19T01:03:02;356.73;;;331.75;;
51438;SDS011;38816;51.142;-0.974;2023-06-19T01:05:29;363.35;;;337.88;;
51438;SDS011;38816;51.142;-0.974;2023-06-19T01:10:52;351.58;;;326.70;;
51438;SDS011;38816;51.142;-0.974;2023-06-19T01:16:10;334.25;;;310.65;;
51438;SDS011;38816;51.142;-0.974;2023-06-19T01:18:37;347.08;;;322.67;;
51438;SDS011;38816;51.142;-0.974;2023-06-19T01:21:12;346.15;;;321.73;;
51438;SDS011;38816;51.142;-0.974;2023-06-19T01:23:40;340.50;;;316.35;;
51438;SDS011;38816;51.142;-0.974;2023-06-19T01:26:06;345.30;;;320.60;;
51438;SDS011;38816;51.142;-0.974;2023-06-19T01:28:32;346.85;;;322.00;;
51438;SDS011;38816;51.142;-0.974;2023-06-19T01:31:00;342.17;;;317.58;;
51438;SDS011;38816;51.142;-0.974;2023-06-19T01:33:26;340.08;;;315.95;;
51438;SDS011;38816;51.142;-0.974;2023-06-19T01:35:55;339.35;;;314.67;;
51438;SDS011;38816;51.142;-0.974;2023-06-19T01:38:23;339.85;;;315.80;;
51438;SDS011;38816;51.142;-0.974;2023-06-19T01:40:54;337.77;;;313.85;;
51438;SDS011;38816;51.142;-0.974;2023-06-19T01:43:22;333.33;;;309.60;;
51438;SDS011;38816;51.142;-0.974;2023-06-19T01:45:48;340.10;;;315.98;;
51438;SDS011;38816;51.142;-0.974;2023-06-19T01:48:14;348.80;;;323.23;;
51438;SDS011;38816;51.142;-0.974;2023-06-19T01:50:41;343.00;;;318.65;;
51438;SDS011;38816;51.142;-0.974;2023-06-19T01:53:10;337.77;;;313.52;;
51438;SDS011;38816;51.142;-0.974;2023-06-19T01:55:35;346.05;;;321.15;;
51438;SDS011;38816;51.142;-0.974;2023-06-19T01:58:00;336.65;;;312.63;;
51438;SDS011;38816;51.142;-0.974;2023-06-19T02:00:26;339.25;;;314.88;;
51438;SDS011;38816;51.142;-0.974;2023-06-19T02:02:51;334.27;;;310.60;;
51438;SDS011;38816;51.142;-0.974;2023-06-19T02:05:17;339.60;;;315.58;;
51438;SDS011;38816;51.142;-0.974;2023-06-19T02:07:42;339.13;;;314.95;;
51438;SDS011;38816;51.142;-0.974;2023-06-19T02:10:07;343.05;;;318.75;;
51438;SDS011;38816;51.142;-0.974;2023-06-19T02:12:33;346.15;;;321.15;;
51438;SDS011;38816;51.142;-0.974;2023-06-19T02:14:59;342.45;;;317.42;;
51438;SDS011;38816;51.142;-0.974;2023-06-19T02:17:24;341.98;;;317.45;;
51438;SDS011;38816;51.142;-0.974;2023-06-19T02:19:49;341.08;;;317.35;;
51438;SDS011;38816;51.142;-0.974;2023-06-19T02:22:15;339.25;;;315.05;;
51438;SDS011;38816;51.142;-0.974;2023-06-19T02:24:40;327.42;;;304.15;;
51438;SDS011;38816;51.142;-0.974;2023-06-19T02:27:06;335.75;;;311.80;;
51438;SDS011;38816;51.142;-0.974;2023-06-19T02:29:31;339.63;;;315.70;;
51438;SDS011;38816;51.142;-0.974;2023-06-19T02:31:59;339.42;;;315.63;;
51438;SDS011;38816;51.142;-0.974;2023-06-19T02:34:24;334.88;;;311.17;;
51438;SDS011;38816;51.142;-0.974;2023-06-19T02:36:50;334.08;;;309.90;;
51438;SDS011;38816;51.142;-0.974;2023-06-19T02:39:15;337.42;;;313.70;;
51438;SDS011;38816;51.142;-0.974;2023-06-19T02:41:41;342.30;;;318.15;;
51438;SDS011;38816;51.142;-0.974;2023-06-19T02:44:10;333.30;;;309.02;;
51438;SDS011;38816;51.142;-0.974;2023-06-19T02:46:36;335.17;;;311.15;;
51438;SDS011;38816;51.142;-0.974;2023-06-19T02:49:02;341.27;;;316.63;;
51438;SDS011;38816;51.142;-0.974;2023-06-19T02:51:27;331.35;;;307.77;;
51438;SDS011;38816;51.142;-0.974;2023-06-19T02:53:52;340.35;;;315.65;;
51438;SDS011;38816;51.142;-0.974;2023-06-19T02:56:18;342.15;;;317.27;;
51438;SDS011;38816;51.142;-0.974;2023-06-19T02:58:43;351.30;;;326.23;;
51438;SDS011;38816;51.142;-0.974;2023-06-19T03:01:09;335.27;;;311.27;;
51438;SDS011;38816;51.142;-0.974;2023-06-19T03:03:34;350.70;;;325.45;;
51438;SDS011;38816;51.142;-0.974;2023-06-19T03:06:05;345.30;;;320.85;;
51438;SDS011;38816;51.142;-0.974;2023-06-19T03:08:35;353.50;;;328.17;;
51438;SDS011;38816;51.142;-0.974;2023-06-19T03:11:01;346.52;;;321.73;;
51438;SDS011;38816;51.142;-0.974;2023-06-19T03:13:51;336.85;;;312.95;;
51438;SDS011;38816;51.142;-0.974;2023-06-19T03:16:18;348.60;;;323.63;;
51438;SDS011;38816;51.142;-0.974;2023-06-19T03:18:44;349.00;;;324.65;;
51438;SDS011;38816;51.142;-0.974;2023-06-19T03:21:13;340.63;;;316.75;;
51438;SDS011;38816;51.142;-0.974;2023-06-19T03:23:39;352.10;;;327.13;;
51438;SDS011;38816;51.142;-0.974;2023-06-19T03:26:08;348.48;;;323.95;;
51438;SDS011;38816;51.142;-0.974;2023-06-19T03:28:35;356.23;;;331.33;;
51438;SDS011;38816;51.142;-0.974;2023-06-19T03:31:00;360.13;;;334.70;;
51438;SDS011;38816;51.142;-0.974;2023-06-19T03:33:26;350.55;;;325.20;;
51438;SDS011;38816;51.142;-0.974;2023-06-19T03:35:51;352.67;;;327.67;;
51438;SDS011;38816;51.142;-0.974;2023-06-19T03:38:16;344.02;;;319.55;;
51438;SDS011;38816;51.142;-0.974;2023-06-19T03:40:42;353.52;;;328.83;;
51438;SDS011;38816;51.142;-0.974;2023-06-19T03:43:07;359.08;;;333.92;;
51438;SDS011;38816;51.142;-0.974;2023-06-19T03:45:33;357.50;;;332.50;;
51438;SDS011;38816;51.142;-0.974;2023-06-19T03:47:58;354.30;;;329.65;;
51438;SDS011;38816;51.142;-0.974;2023-06-19T03:50:24;360.38;;;334.88;;
51438;SDS011;38816;51.142;-0.974;2023-06-19T03:52:49;350.77;;;326.00;;
51438;SDS011;38816;51.142;-0.974;2023-06-19T03:55:15;341.15;;;317.17;;
51438;SDS011;38816;51.142;-0.974;2023-06-19T03:57:40;357.33;;;332.20;;
51438;SDS011;38816;51.142;-0.974;2023-06-19T04:00:06;360.05;;;334.90;;
51438;SDS011;38816;51.142;-0.974;2023-06-19T04:02:33;348.73;;;324.83;;
51438;SDS011;38816;51.142;-0.974;2023-06-19T04:04:59;356.50;;;331.77;;
51438;SDS011;38816;51.142;-0.974;2023-06-19T04:07:24;357.23;;;331.73;;
51438;SDS011;38816;51.142;-0.974;2023-06-19T04:09:50;353.08;;;328.00;;
51438;SDS011;38816;51.142;-0.974;2023-06-19T04:12:15;349.30;;;324.25;;
51438;SDS011;38816;51.142;-0.974;2023-06-19T04:14:41;349.80;;;325.13;;
51438;SDS011;38816;51.142;-0.974;2023-06-19T04:17:06;351.52;;;326.25;;
51438;SDS011;38816;51.142;-0.974;2023-06-19T04:19:32;355.55;;;330.17;;
51438;SDS011;38816;51.142;-0.974;2023-06-19T04:21:57;352.17;;;326.77;;
51438;SDS011;38816;51.142;-0.974;2023-06-19T04:24:22;341.63;;;317.02;;
51438;SDS011;38816;51.142;-0.974;2023-06-19T04:26:48;354.95;;;329.55;;
51438;SDS011;38816;51.142;-0.974;2023-06-19T04:29:13;360.10;;;333.40;;
51438;SDS011;38816;51.142;-0.974;2023-06-19T04:31:42;361.45;;;334.20;;
51438;SDS011;38816;51.142;-0.974;2023-06-19T04:34:15;360.25;;;333.38;;
51438;SDS011;38816;51.142;-0.974;2023-06-19T04:36:41;350.95;;;324.75;;
51438;SDS011;38816;51.142;-0.974;2023-06-19T04:39:06;351.77;;;325.58;;
51438;SDS011;38816;51.142;-0.974;2023-06-19T04:41:32;356.65;;;329.60;;
51438;SDS011;38816;51.142;-0.974;2023-06-19T04:43:57;360.77;;;333.88;;
51438;SDS011;38816;51.142;-0.974;2023-06-19T04:46:23;362.77;;;335.73;;
51438;SDS011;38816;51.142;-0.974;2023-06-19T04:48:48;356.25;;;328.75;;
51438;SDS011;38816;51.142;-0.974;2023-06-19T04:51:19;357.10;;;329.90;;
51438;SDS011;38816;51.142;-0.974;2023-06-19T04:53:45;359.35;;;332.92;;
51438;SDS011;38816;51.142;-0.974;2023-06-19T04:56:12;358.52;;;332.00;;
51438;SDS011;38816;51.142;-0.974;2023-06-19T04:58:37;353.63;;;327.20;;
51438;SDS011;38816;51.142;-0.974;2023-06-19T05:03:35;350.27;;;324.92;;
51438;SDS011;38816;51.142;-0.974;2023-06-19T05:06:01;362.23;;;335.67;;
51438;SDS011;38816;51.142;-0.974;2023-06-19T05:08:26;363.40;;;337.17;;
51438;SDS011;38816;51.142;-0.974;2023-06-19T05:10:52;365.98;;;339.15;;
51438;SDS011;38816;51.142;-0.974;2023-06-19T05:13:18;363.40;;;336.85;;
51438;SDS011;38816;51.142;-0.974;2023-06-19T05:15:44;356.40;;;330.65;;
51438;SDS011;38816;51.142;-0.974;2023-06-19T05:18:09;354.95;;;329.05;;
51438;SDS011;38816;51.142;-0.974;2023-06-19T05:20:35;365.58;;;339.52;;
51438;SDS011;38816;51.142;-0.974;2023-06-19T05:23:00;372.35;;;345.58;;
51438;SDS011;38816;51.142;-0.974;2023-06-19T05:25:25;369.73;;;342.65;;
51438;SDS011;38816;51.142;-0.974;2023-06-19T05:27:52;373.80;;;346.98;;
51438;SDS011;38816;51.142;-0.974;2023-06-19T05:30:17;378.95;;;351.83;;
51438;SDS011;38816;51.142;-0.974;2023-06-19T05:32:43;376.65;;;349.42;;
51438;SDS011;38816;51.142;-0.974;2023-06-19T05:35:08;384.42;;;357.08;;
51438;SDS011;38816;51.142;-0.974;2023-06-19T05:37:34;379.17;;;352.10;;
51438;SDS011;38816;51.142;-0.974;2023-06-19T05:39:59;379.48;;;351.27;;
51438;SDS011;38816;51.142;-0.974;2023-06-19T05:42:24;381.52;;;354.27;;
51438;SDS011;38816;51.142;-0.974;2023-06-19T05:44:50;377.00;;;350.23;;
51438;SDS011;38816;51.142;-0.974;2023-06-19T05:47:15;373.08;;;346.13;;
51438;SDS011;38816;51.142;-0.974;2023-06-19T05:49:42;381.10;;;353.75;;
51438;SDS011;38816;51.142;-0.974;2023-06-19T05:52:08;370.83;;;344.17;;
51438;SDS011;38816;51.142;-0.974;2023-06-19T05:54:34;380.02;;;352.77;;
51438;SDS011;38816;51.142;-0.974;2023-06-19T05:56:59;377.13;;;350.25;;
51438;SDS011;38816;51.142;-0.974;2023-06-19T05:59:24;381.15;;;354.02;;
51438;SDS011;38816;51.142;-0.974;2023-06-19T06:01:50;382.70;;;355.48;;
51438;SDS011;38816;51.142;-0.974;2023-06-19T06:04:15;371.58;;;345.02;;
51438;SDS011;38816;51.142;-0.974;2023-06-19T06:06:41;378.33;;;351.30;;
51438;SDS011;38816;51.142;-0.974;2023-06-19T06:09:06;379.40;;;352.55;;
51438;SDS011;38816;51.142;-0.974;2023-06-19T06:11:35;379.77;;;352.70;;
51438;SDS011;38816;51.142;-0.974;2023-06-19T06:14:01;376.17;;;349.38;;
51438;SDS011;38816;51.142;-0.974;2023-06-19T06:16:26;377.35;;;350.55;;
51438;SDS011;38816;51.142;-0.974;2023-06-19T06:18:52;378.20;;;351.63;;
51438;SDS011;38816;51.142;-0.974;2023-06-19T06:21:17;385.35;;;358.50;;
51438;SDS011;38816;51.142;-0.974;2023-06-19T06:23:43;382.42;;;355.52;;
51438;SDS011;38816;51.142;-0.974;2023-06-19T06:26:09;387.17;;;359.63;;
51438;SDS011;38816;51.142;-0.974;2023-06-19T06:28:35;369.83;;;344.48;;
51438;SDS011;38816;51.142;-0.974;2023-06-19T06:31:00;366.73;;;341.38;;
51438;SDS011;38816;51.142;-0.974;2023-06-19T06:33:26;381.90;;;355.63;;
51438;SDS011;38816;51.142;-0.974;2023-06-19T06:35:54;362.83;;;338.05;;
51438;SDS011;38816;51.142;-0.974;2023-06-19T06:38:20;369.38;;;344.15;;
51438;SDS011;38816;51.142;-0.974;2023-06-19T06:40:45;369.15;;;344.13;;
51438;SDS011;38816;51.142;-0.974;2023-06-19T06:43:11;372.65;;;347.25;;
51438;SDS011;38816;51.142;-0.974;2023-06-19T06:45:37;367.33;;;342.33;;
51438;SDS011;38816;51.142;-0.974;2023-06-19T06:48:07;364.52;;;339.88;;
51438;SDS011;38816;51.142;-0.974;2023-06-19T06:50:33;370.83;;;345.48;;
51438;SDS011;38816;51.142;-0.974;2023-06-19T06:52:58;356.20;;;332.17;;
51438;SDS011;38816;51.142;-0.974;2023-06-19T06:55:23;354.08;;;330.00;;
51438;SDS011;38816;51.142;-0.974;2023-06-19T06:57:49;362.27;;;338.10;;
51438;SDS011;38816;51.142;-0.974;2023-06-19T07:00:14;361.42;;;337.30;;
51438;SDS011;38816;51.142;-0.974;2023-06-19T07:02:40;360.65;;;336.23;;
51438;SDS011;38816;51.142;-0.974;2023-06-19T07:05:08;367.77;;;343.02;;
51438;SDS011;38816;51.142;-0.974;2023-06-19T07:07:35;360.10;;;335.83;;
51438;SDS011;38816;51.142;-0.974;2023-06-19T07:10:00;361.33;;;337.17;;
51438;SDS011;38816;51.142;-0.974;2023-06-19T07:12:26;366.45;;;341.67;;
51438;SDS011;38816;51.142;-0.974;2023-06-19T07:14:54;366.00;;;341.48;;
51438;SDS011;38816;51.142;-0.974;2023-06-19T07:17:20;366.08;;;341.33;;
51438;SDS011;38816;51.142;-0.974;2023-06-19T07:19:45;361.90;;;337.42;;
51438;SDS011;38816;51.142;-0.974;2023-06-19T07:22:11;361.75;;;337.50;;
51438;SDS011;38816;51.142;-0.974;2023-06-19T07:24:36;358.05;;;333.75;;
51438;SDS011;38816;51.142;-0.974;2023-06-19T07:27:02;363.23;;;338.58;;
51438;SDS011;38816;51.142;-0.974;2023-06-19T07:29:27;357.08;;;333.25;;
51438;SDS011;38816;51.142;-0.974;2023-06-19T07:31:53;356.35;;;331.98;;
51438;SDS011;38816;51.142;-0.974;2023-06-19T07:34:18;351.70;;;328.08;;
51438;SDS011;38816;51.142;-0.974;2023-06-19T07:36:43;356.05;;;332.10;;
51438;SDS011;38816;51.142;-0.974;2023-06-19T07:39:09;347.70;;;324.33;;
51438;SDS011;38816;51.142;-0.974;2023-06-19T07:41:35;346.20;;;322.98;;
51438;SDS011;38816;51.142;-0.974;2023-06-19T07:44:00;367.42;;;343.02;;
51438;SDS011;38816;51.142;-0.974;2023-06-19T07:46:26;359.70;;;335.73;;
51438;SDS011;38816;51.142;-0.974;2023-06-19T07:48:51;352.10;;;328.58;;
51438;SDS011;38816;51.142;-0.974;2023-06-19T07:51:16;349.83;;;326.58;;
51438;SDS011;38816;51.142;-0.974;2023-06-19T07:53:42;343.40;;;320.40;;
51438;SDS011;38816;51.142;-0.974;2023-06-19T07:56:08;360.00;;;336.00;;
51438;SDS011;38816;51.142;-0.974;2023-06-19T07:58:34;350.73;;;327.45;;
51438;SDS011;38816;51.142;-0.974;2023-06-19T08:00:59;344.83;;;321.58;;
51438;SDS011;38816;51.142;-0.974;2023-06-19T08:03:25;330.65;;;308.77;;
51438;SDS011;38816;51.142;-0.974;2023-06-19T08:05:50;328.85;;;306.95;;
51438;SDS011;38816;51.142;-0.974;2023-06-19T08:08:16;323.35;;;302.02;;
51438;SDS011;38816;51.142;-0.974;2023-06-19T08:10:41;319.02;;;297.80;;
51438;SDS011;38816;51.142;-0.974;2023-06-19T08:13:07;320.27;;;299.40;;
51438;SDS011;38816;51.142;-0.974;2023-06-19T08:15:32;318.27;;;297.17;;
51438;SDS011;38816;51.142;-0.974;2023-06-19T08:17:57;314.85;;;294.15;;
51438;SDS011;38816;51.142;-0.974;2023-06-19T08:20:23;321.50;;;300.30;;
51438;SDS011;38816;51.142;-0.974;2023-06-19T08:22:49;295.42;;;275.83;;
51438;SDS011;38816;51.142;-0.974;2023-06-19T08:25:14;310.77;;;290.30;;
51438;SDS011;38816;51.142;-0.974;2023-06-19T08:27:40;301.20;;;281.42;;
51438;SDS011;38816;51.142;-0.974;2023-06-19T08:30:05;293.85;;;274.50;;
51438;SDS011;38816;51.142;-0.974;2023-06-19T08:32:31;291.00;;;272.10;;
51438;SDS011;38816;51.142;-0.974;2023-06-19T08:34:58;290.17;;;271.13;;
51438;SDS011;38816;51.142;-0.974;2023-06-19T08:37:23;288.58;;;269.63;;
51438;SDS011;38816;51.142;-0.974;2023-06-19T08:39:48;280.20;;;261.95;;
51438;SDS011;38816;51.142;-0.974;2023-06-19T08:42:14;284.17;;;265.60;;
51438;SDS011;38816;51.142;-0.974;2023-06-19T08:44:39;287.27;;;268.23;;
51438;SDS011;38816;51.142;-0.974;2023-06-19T08:47:05;269.88;;;252.13;;
51438;SDS011;38816;51.142;-0.974;2023-06-19T08:49:31;278.90;;;260.90;;
51438;SDS011;38816;51.142;-0.974;2023-06-19T08:51:58;268.23;;;250.75;;
51438;SDS011;38816;51.142;-0.974;2023-06-19T08:54:24;278.83;;;260.45;;
51438;SDS011;38816;51.142;-0.974;2023-06-19T08:56:50;278.20;;;259.90;;
51438;SDS011;38816;51.142;-0.974;2023-06-19T08:59:18;284.35;;;265.63;;
51438;SDS011;38816;51.142;-0.974;2023-06-19T09:01:47;271.55;;;253.80;;
51438;SDS011;38816;51.142;-0.974;2023-06-19T09:04:17;265.27;;;248.00;;
51438;SDS011;38816;51.142;-0.974;2023-06-19T09:06:50;266.80;;;249.25;;
51438;SDS011;38816;51.142;-0.974;2023-06-19T09:09:17;268.58;;;250.95;;
51438;SDS011;38816;51.142;-0.974;2023-06-19T09:11:56;274.45;;;256.52;;
51438;SDS011;38816;51.142;-0.974;2023-06-19T09:17:02;280.02;;;261.58;;
51438;SDS011;38816;51.142;-0.974;2023-06-19T09:19:28;287.75;;;268.98;;
51438;SDS011;38816;51.142;-0.974;2023-06-19T09:21:58;284.33;;;265.85;;
51438;SDS011;38816;51.142;-0.974;2023-06-19T09:24:32;294.48;;;275.15;;
51438;SDS011;38816;51.142;-0.974;2023-06-19T09:27:06;302.15;;;282.42;;
51438;SDS011;38816;51.142;-0.974;2023-06-19T09:29:38;308.20;;;288.10;;
51438;SDS011;38816;51.142;-0.974;2023-06-19T09:34:42;304.40;;;284.65;;
51438;SDS011;38816;51.142;-0.974;2023-06-19T09:37:08;303.23;;;283.35;;
51438;SDS011;38816;51.142;-0.974;2023-06-19T09:39:35;305.55;;;285.77;;
51438;SDS011;38816;51.142;-0.974;2023-06-19T09:42:04;301.05;;;281.27;;
51438;SDS011;38816;51.142;-0.974;2023-06-19T09:44:32;302.20;;;282.55;;
51438;SDS011;38816;51.142;-0.974;2023-06-19T09:47:10;287.98;;;269.08;;
51438;SDS011;38816;51.142;-0.974;2023-06-19T09:49:43;283.85;;;265.02;;
51438;SDS011;38816;51.142;-0.974;2023-06-19T09:52:14;261.92;;;244.52;;
51438;SDS011;38816;51.142;-0.974;2023-06-19T09:54:40;279.02;;;260.83;;
51438;SDS011;38816;51.142;-0.974;2023-06-19T09:57:08;279.90;;;261.38;;
51438;SDS011;38816;51.142;-0.974;2023-06-19T09:59:35;293.92;;;274.77;;
51438;SDS011;38816;51.142;-0.974;2023-06-19T10:02:03;296.90;;;277.02;;
51438;SDS011;38816;51.142;-0.974;2023-06-19T10:04:41;302.80;;;283.10;;
51438;SDS011;38816;51.142;-0.974;2023-06-19T10:07:24;307.20;;;287.27;;
51438;SDS011;38816;51.142;-0.974;2023-06-19T10:10:01;303.30;;;283.50;;
51438;SDS011;38816;51.142;-0.974;2023-06-19T10:12:44;303.38;;;283.50;;
51438;SDS011;38816;51.142;-0.974;2023-06-19T10:15:12;313.15;;;292.65;;
51438;SDS011;38816;51.142;-0.974;2023-06-19T10:17:44;305.10;;;285.05;;
51438;SDS011;38816;51.142;-0.974;2023-06-19T10:23:05;307.05;;;287.17;;
51438;SDS011;38816;51.142;-0.974;2023-06-19T10:25:37;301.70;;;282.13;;
51438;SDS011;38816;51.142;-0.974;2023-06-19T10:28:04;302.15;;;282.33;;
51438;SDS011;38816;51.142;-0.974;2023-06-19T10:30:40;307.45;;;287.38;;
51438;SDS011;38816;51.142;-0.974;2023-06-19T10:33:06;304.83;;;285.08;;
51438;SDS011;38816;51.142;-0.974;2023-06-19T10:35:37;303.70;;;283.92;;
51438;SDS011;38816;51.142;-0.974;2023-06-19T10:38:04;299.23;;;279.75;;
51438;SDS011;38816;51.142;-0.974;2023-06-19T10:40:30;302.00;;;282.35;;
51438;SDS011;38816;51.142;-0.974;2023-06-19T10:42:55;300.17;;;280.67;;
51438;SDS011;38816;51.142;-0.974;2023-06-19T10:45:21;298.80;;;279.15;;
51438;SDS011;38816;51.142;-0.974;2023-06-19T10:47:53;320.42;;;299.45;;
51438;SDS011;38816;51.142;-0.974;2023-06-19T10:50:19;296.67;;;277.15;;
51438;SDS011;38816;51.142;-0.974;2023-06-19T10:52:45;301.88;;;282.27;;
51438;SDS011;38816;51.142;-0.974;2023-06-19T10:55:11;300.27;;;280.55;;
51438;SDS011;38816;51.142;-0.974;2023-06-19T10:57:38;302.02;;;282.13;;
51438;SDS011;38816;51.142;-0.974;2023-06-19T11:00:05;299.35;;;279.73;;
51438;SDS011;38816;51.142;-0.974;2023-06-19T11:02:37;292.92;;;273.80;;
51438;SDS011;38816;51.142;-0.974;2023-06-19T11:05:04;288.15;;;269.42;;
51438;SDS011;38816;51.142;-0.974;2023-06-19T11:07:31;306.55;;;286.63;;
51438;SDS011;38816;51.142;-0.974;2023-06-19T11:09:57;301.67;;;282.20;;
51438;SDS011;38816;51.142;-0.974;2023-06-19T11:12:22;309.73;;;288.85;;
51438;SDS011;38816;51.142;-0.974;2023-06-19T11:14:48;299.33;;;279.55;;
51438;SDS011;38816;51.142;-0.974;2023-06-19T11:17:14;314.42;;;293.92;;
51438;SDS011;38816;51.142;-0.974;2023-06-19T11:19:40;308.63;;;288.60;;
51438;SDS011;38816;51.142;-0.974;2023-06-19T11:22:07;307.05;;;286.90;;
51438;SDS011;38816;51.142;-0.974;2023-06-19T11:24:33;311.27;;;290.85;;
51438;SDS011;38816;51.142;-0.974;2023-06-19T11:26:58;312.83;;;292.52;;
51438;SDS011;38816;51.142;-0.974;2023-06-19T11:29:29;299.52;;;279.98;;
51438;SDS011;38816;51.142;-0.974;2023-06-19T11:32:08;316.65;;;295.75;;
51438;SDS011;38816;51.142;-0.974;2023-06-19T11:34:37;314.17;;;293.48;;
51438;SDS011;38816;51.142;-0.974;2023-06-19T11:37:13;305.92;;;285.95;;
51438;SDS011;38816;51.142;-0.974;2023-06-19T11:39:39;310.70;;;290.55;;
51438;SDS011;38816;51.142;-0.974;2023-06-19T11:42:06;303.42;;;283.55;;
51438;SDS011;38816;51.142;-0.974;2023-06-19T11:44:32;305.85;;;286.05;;
51438;SDS011;38816;51.142;-0.974;2023-06-19T11:46:58;305.88;;;286.02;;
51438;SDS011;38816;51.142;-0.974;2023-06-19T11:49:28;307.70;;;287.50;;
51438;SDS011;38816;51.142;-0.974;2023-06-19T11:52:00;309.27;;;289.20;;
51438;SDS011;38816;51.142;-0.974;2023-06-19T11:54:25;309.42;;;289.13;;
51438;SDS011;38816;51.142;-0.974;2023-06-19T11:56:51;305.98;;;285.95;;
51438;SDS011;38816;51.142;-0.974;2023-06-19T11:59:16;309.13;;;288.90;;
51438;SDS011;38816;51.142;-0.974;2023-06-19T12:01:42;311.92;;;291.63;;
51438;SDS011;38816;51.142;-0.974;2023-06-19T12:04:07;314.45;;;293.75;;
51438;SDS011;38816;51.142;-0.974;2023-06-19T12:06:33;309.42;;;289.08;;
51438;SDS011;38816;51.142;-0.974;2023-06-19T12:09:00;318.30;;;297.63;;
51438;SDS011;38816;51.142;-0.974;2023-06-19T12:11:25;313.88;;;293.30;;
51438;SDS011;38816;51.142;-0.974;2023-06-19T12:13:51;312.25;;;291.80;;
51438;SDS011;38816;51.142;-0.974;2023-06-19T12:16:18;302.35;;;282.63;;
51438;SDS011;38816;51.142;-0.974;2023-06-19T12:18:43;311.55;;;291.13;;
51438;SDS011;38816;51.142;-0.974;2023-06-19T12:21:09;312.52;;;292.15;;
51438;SDS011;38816;51.142;-0.974;2023-06-19T12:23:34;311.55;;;291.00;;
51438;SDS011;38816;51.142;-0.974;2023-06-19T12:26:00;312.40;;;291.60;;
51438;SDS011;38816;51.142;-0.974;2023-06-19T12:28:25;312.55;;;292.10;;
51438;SDS011;38816;51.142;-0.974;2023-06-19T12:30:50;315.73;;;294.77;;
51438;SDS011;38816;51.142;-0.974;2023-06-19T12:33:17;310.55;;;290.13;;
51438;SDS011;38816;51.142;-0.974;2023-06-19T12:35:44;309.55;;;289.30;;
51438;SDS011;38816;51.142;-0.974;2023-06-19T12:38:09;316.38;;;295.67;;
51438;SDS011;38816;51.142;-0.974;2023-06-19T12:40:36;310.25;;;289.88;;
51438;SDS011;38816;51.142;-0.974;2023-06-19T12:43:02;304.25;;;284.40;;
51438;SDS011;38816;51.142;-0.974;2023-06-19T12:45:27;312.08;;;291.42;;
51438;SDS011;38816;51.142;-0.974;2023-06-19T12:47:53;311.17;;;290.75;;
51438;SDS011;38816;51.142;-0.974;2023-06-19T12:50:18;312.17;;;291.77;;
51438;SDS011;38816;51.142;-0.974;2023-06-19T12:52:43;301.00;;;281.25;;
51438;SDS011;38816;51.142;-0.974;2023-06-19T12:55:09;311.25;;;290.88;;
51438;SDS011;38816;51.142;-0.974;2023-06-19T12:57:34;301.48;;;281.63;;
51438;SDS011;38816;51.142;-0.974;2023-06-19T13:00:00;301.40;;;281.67;;
51438;SDS011;38816;51.142;-0.974;2023-06-19T13:02:25;303.55;;;283.58;;
51438;SDS011;38816;51.142;-0.974;2023-06-19T13:04:51;310.55;;;290.42;;
51438;SDS011;38816;51.142;-0.974;2023-06-19T13:07:17;304.77;;;284.92;;
51438;SDS011;38816;51.142;-0.974;2023-06-19T13:09:42;305.45;;;285.63;;
51438;SDS011;38816;51.142;-0.974;2023-06-19T13:12:07;303.92;;;283.88;;
51438;SDS011;38816;51.142;-0.974;2023-06-19T13:14:33;307.60;;;287.65;;
51438;SDS011;38816;51.142;-0.974;2023-06-19T13:16:59;301.55;;;281.85;;
51438;SDS011;38816;51.142;-0.974;2023-06-19T13:19:25;303.15;;;283.33;;
51438;SDS011;38816;51.142;-0.974;2023-06-19T13:21:51;305.95;;;285.92;;
51438;SDS011;38816;51.142;-0.974;2023-06-19T13:24:16;293.80;;;274.33;;
51438;SDS011;38816;51.142;-0.974;2023-06-19T13:26:42;297.88;;;278.25;;
51438;SDS011;38816;51.142;-0.974;2023-06-19T13:29:09;301.98;;;282.48;;
51438;SDS011;38816;51.142;-0.974;2023-06-19T13:31:36;304.02;;;284.17;;
51438;SDS011;38816;51.142;-0.974;2023-06-19T13:34:02;306.55;;;286.40;;
51438;SDS011;38816;51.142;-0.974;2023-06-19T13:36:27;312.80;;;292.15;;
51438;SDS011;38816;51.142;-0.974;2023-06-19T13:38:52;308.35;;;288.15;;
51438;SDS011;38816;51.142;-0.974;2023-06-19T13:41:18;317.95;;;297.20;;
51438;SDS011;38816;51.142;-0.974;2023-06-19T13:43:43;317.88;;;297.10;;
51438;SDS011;38816;51.142;-0.974;2023-06-19T13:46:10;319.52;;;298.75;;
51438;SDS011;38816;51.142;-0.974;2023-06-19T13:48:36;302.02;;;282.38;;
51438;SDS011;38816;51.142;-0.974;2023-06-19T13:51:02;303.90;;;284.27;;
51438;SDS011;38816;51.142;-0.974;2023-06-19T13:53:27;310.98;;;290.58;;
51438;SDS011;38816;51.142;-0.974;2023-06-19T13:55:56;303.85;;;284.13;;
51438;SDS011;38816;51.142;-0.974;2023-06-19T13:58:21;306.17;;;285.98;;